Time;durP1;ratioP1;P1;durP2;ratioP2;P2;SDS_P1;SDS_P2;PMS_P1;PMS_P2;Temp;Humidity;BMP_temperature;BMP_pressure;BME280_temperature;BME280_humidity;BME280_pressure;Samples;Min_cycle;Max_cycle;Signal;HPM_P1;HPM_P2
2024/04/15 00:02:02;;;;;;;67.57;36.17;;;;;;;;;;5312031;26;19998;-66
2024/04/15 00:04:28;;;;;;;66.05;35.97;;;;;;;;;;5312226;27;20007;-65
2024/04/15 00:06:54;;;;;;;61.83;34.40;;;;;;;;;;5311957;27;20001;-65
2024/04/15 00:09:20;;;;;;;61.53;34.15;;;;;;;;;;5312336;26;20029;-64
2024/04/15 00:11:47;;;;;;;56.92;32.67;;;;;;;;;;5311839;27;20449;-65
2024/04/15 00:14:13;;;;;;;59.55;32.25;;;;;;;;;;5312158;27;19994;-65
2024/04/15 00:16:39;;;;;;;55.88;31.83;;;;;;;;;;5310667;26;20610;-64
2024/04/15 00:19:05;;;;;;;54.58;30.83;;;;;;;;;;5312120;27;20012;-64
2024/04/15 00:21:31;;;;;;;58.63;32.58;;;;;;;;;;5311856;26;20016;-65
2024/04/15 00:23:57;;;;;;;56.97;29.33;;;;;;;;;;5312156;27;19997;-65
2024/04/15 00:26:23;;;;;;;53.80;29.38;;;;;;;;;;5312007;27;20013;-65
2024/04/15 00:28:49;;;;;;;57.20;31.83;;;;;;;;;;5310159;26;20029;-65
2024/04/15 00:31:15;;;;;;;55.00;29.95;;;;;;;;;;5326925;21;20038;-68
2024/04/15 00:33:41;;;;;;;50.13;29.17;;;;;;;;;;5306608;26;20037;-69
2024/04/15 00:36:07;;;;;;;47.63;26.88;;;;;;;;;;5309031;26;20018;-68
2024/04/15 00:38:33;;;;;;;49.00;27.83;;;;;;;;;;5309355;26;20002;-68
2024/04/15 00:40:59;;;;;;;47.53;27.92;;;;;;;;;;5314699;26;20078;-68
2024/04/15 00:43:25;;;;;;;51.95;27.83;;;;;;;;;;5343822;26;20469;-67
2024/04/15 00:45:51;;;;;;;50.65;27.58;;;;;;;;;;5344025;26;20005;-68
2024/04/15 00:48:17;;;;;;;48.47;25.80;;;;;;;;;;5344000;26;20029;-69
2024/04/15 00:50:45;;;;;;;47.35;26.45;;;;;;;;;;5344913;26;20437;-68
2024/04/15 00:53:11;;;;;;;43.40;26.02;;;;;;;;;;5346119;26;20019;-69
2024/04/15 00:55:38;;;;;;;44.58;26.45;;;;;;;;;;5346383;26;20011;-68
2024/04/15 00:58:05;;;;;;;47.15;26.60;;;;;;;;;;5346345;26;20427;-68
2024/04/15 01:00:31;;;;;;;42.47;24.48;;;;;;;;;;5346140;26;20009;-67
2024/04/15 01:02:57;;;;;;;44.45;24.58;;;;;;;;;;5346093;26;20013;-69
2024/04/15 01:05:24;;;;;;;43.88;25.63;;;;;;;;;;5346399;26;20005;-69
2024/04/15 01:07:50;;;;;;;45.40;25.40;;;;;;;;;;5346138;26;20013;-69
2024/04/15 01:10:16;;;;;;;38.72;22.73;;;;;;;;;;5345973;26;20001;-69
2024/04/15 01:12:42;;;;;;;43.25;24.13;;;;;;;;;;5343848;26;20011;-69
2024/04/15 01:15:09;;;;;;;41.22;23.08;;;;;;;;;;5346620;26;19997;-68
2024/04/15 01:17:35;;;;;;;43.28;24.42;;;;;;;;;;5346180;26;19997;-69
2024/04/15 01:20:01;;;;;;;40.17;22.13;;;;;;;;;;5345943;26;20004;-68
2024/04/15 01:22:31;;;;;;;39.42;21.77;;;;;;;;;;5345688;26;20005;-68
2024/04/15 01:24:57;;;;;;;38.67;22.57;;;;;;;;;;5345973;26;20004;-69
2024/04/15 01:27:23;;;;;;;40.90;21.95;;;;;;;;;;5344325;26;20341;-68
2024/04/15 01:29:49;;;;;;;37.78;21.63;;;;;;;;;;5345934;26;20001;-69
2024/04/15 01:32:15;;;;;;;38.28;21.48;;;;;;;;;;5345606;26;20009;-69
2024/04/15 01:34:41;;;;;;;36.72;21.40;;;;;;;;;;5345873;26;20011;-70
2024/04/15 01:37:07;;;;;;;37.80;20.80;;;;;;;;;;5344248;26;20370;-69
2024/04/15 01:39:33;;;;;;;36.33;19.42;;;;;;;;;;5345780;26;20012;-69
2024/04/15 01:41:59;;;;;;;34.22;19.23;;;;;;;;;;5345630;26;20009;-69
2024/04/15 01:44:25;;;;;;;39.45;18.42;;;;;;;;;;5346178;26;20001;-70
2024/04/15 01:46:51;;;;;;;38.78;20.73;;;;;;;;;;5345873;26;20015;-69
2024/04/15 01:49:17;;;;;;;35.92;19.33;;;;;;;;;;5345718;26;20005;-70
2024/04/15 01:51:43;;;;;;;31.13;18.55;;;;;;;;;;5345306;26;20019;-69
2024/04/15 01:54:09;;;;;;;33.15;19.02;;;;;;;;;;5343875;26;20004;-70
2024/04/15 01:56:35;;;;;;;36.05;18.60;;;;;;;;;;5345705;26;20001;-69
2024/04/15 01:59:01;;;;;;;29.95;15.65;;;;;;;;;;5345638;26;20074;-69
2024/04/15 02:01:27;;;;;;;35.95;19.35;;;;;;;;;;5345413;26;20002;-69
2024/04/15 02:03:55;;;;;;;31.10;18.50;;;;;;;;;;5345430;26;20001;-69
2024/04/15 02:06:21;;;;;;;30.02;16.33;;;;;;;;;;5345496;26;20472;-68
2024/04/15 02:08:47;;;;;;;34.28;17.15;;;;;;;;;;5345412;26;20005;-69
2024/04/15 02:11:13;;;;;;;34.58;18.33;;;;;;;;;;5345856;26;20001;-70
2024/04/15 02:13:39;;;;;;;26.88;15.35;;;;;;;;;;5345199;26;20062;-69
2024/04/15 02:16:05;;;;;;;27.45;14.98;;;;;;;;;;5343928;26;20515;-70
2024/04/15 02:18:31;;;;;;;24.70;15.23;;;;;;;;;;5344538;26;20004;-69
2024/04/15 02:20:58;;;;;;;27.23;15.68;;;;;;;;;;5345137;26;20037;-69
2024/04/15 02:23:24;;;;;;;26.02;14.82;;;;;;;;;;5345122;26;20005;-70
2024/04/15 02:25:50;;;;;;;26.08;14.98;;;;;;;;;;5345312;26;20005;-68
2024/04/15 02:28:16;;;;;;;28.95;14.88;;;;;;;;;;5345280;26;20050;-69
2024/04/15 02:30:42;;;;;;;26.55;13.90;;;;;;;;;;5344990;26;20001;-68
2024/04/15 02:33:08;;;;;;;25.00;14.27;;;;;;;;;;5344729;26;20015;-68
2024/04/15 02:35:34;;;;;;;25.10;14.90;;;;;;;;;;5344996;26;20078;-69
2024/04/15 02:38:00;;;;;;;25.73;14.35;;;;;;;;;;5344932;26;20423;-69
2024/04/15 02:40:27;;;;;;;25.27;15.45;;;;;;;;;;5345069;26;20012;-69
2024/04/15 02:42:53;;;;;;;24.30;14.05;;;;;;;;;;5344737;26;20453;-70
2024/04/15 02:45:19;;;;;;;22.35;12.65;;;;;;;;;;5345096;26;20011;-69
2024/04/15 02:47:44;;;;;;;25.33;14.15;;;;;;;;;;5344846;26;20005;-69
2024/04/15 02:50:10;;;;;;;24.05;13.60;;;;;;;;;;5344892;26;20070;-69
2024/04/15 02:52:36;;;;;;;24.83;14.43;;;;;;;;;;5344382;26;20001;-70
2024/04/15 02:55:02;;;;;;;24.90;13.65;;;;;;;;;;5345312;26;20019;-69
2024/04/15 02:57:28;;;;;;;23.33;13.20;;;;;;;;;;5345056;26;20012;-69
2024/04/15 02:59:54;;;;;;;23.83;13.70;;;;;;;;;;5344836;26;20001;-69
2024/04/15 03:02:20;;;;;;;24.50;12.98;;;;;;;;;;5344315;26;20001;-69
2024/04/15 03:04:46;;;;;;;21.88;12.27;;;;;;;;;;5344532;26;20392;-69
2024/04/15 03:07:15;;;;;;;22.45;12.52;;;;;;;;;;5344786;26;20009;-69
2024/04/15 03:09:41;;;;;;;21.90;12.52;;;;;;;;;;5344709;26;20016;-68
2024/04/15 03:12:07;;;;;;;21.15;13.68;;;;;;;;;;5344481;26;20004;-69
2024/04/15 03:14:33;;;;;;;21.77;12.57;;;;;;;;;;5344834;26;20001;-69
2024/04/15 03:17:01;;;;;;;18.33;10.82;;;;;;;;;;5344344;26;20001;-68
2024/04/15 03:19:27;;;;;;;22.33;12.18;;;;;;;;;;5344474;26;20040;-69
2024/04/15 03:21:53;;;;;;;19.95;11.57;;;;;;;;;;5343945;26;20001;-68
2024/04/15 03:24:19;;;;;;;17.92;11.30;;;;;;;;;;5344358;26;20009;-68
2024/04/15 03:26:45;;;;;;;20.25;11.68;;;;;;;;;;5344180;26;20001;-69
2024/04/15 03:29:11;;;;;;;17.92;10.63;;;;;;;;;;5344465;26;20002;-68
2024/04/15 03:31:37;;;;;;;18.83;11.07;;;;;;;;;;5346874;26;20021;-68
2024/04/15 03:34:03;;;;;;;19.17;10.52;;;;;;;;;;5347547;26;20008;-68
2024/04/15 03:36:29;;;;;;;18.25;10.20;;;;;;;;;;5347917;26;20163;-69
2024/04/15 03:38:55;;;;;;;17.30;9.73;;;;;;;;;;5347557;26;20012;-67
2024/04/15 03:41:21;;;;;;;16.70;9.40;;;;;;;;;;5347696;26;20357;-69
2024/04/15 03:43:47;;;;;;;18.40;10.90;;;;;;;;;;5347340;26;20001;-69
2024/04/15 03:46:13;;;;;;;15.75;9.68;;;;;;;;;;5345484;26;20000;-69
2024/04/15 03:48:39;;;;;;;19.83;10.52;;;;;;;;;;5347736;26;20001;-69
2024/04/15 03:51:05;;;;;;;17.17;9.75;;;;;;;;;;5347959;26;20012;-70
2024/04/15 03:53:32;;;;;;;18.45;10.02;;;;;;;;;;5348977;26;20009;-69
2024/04/15 03:55:58;;;;;;;15.77;9.23;;;;;;;;;;5350703;26;20013;-69
2024/04/15 03:58:24;;;;;;;16.05;9.27;;;;;;;;;;5346981;26;20001;-70
2024/04/15 04:00:50;;;;;;;20.27;9.02;;;;;;;;;;5348880;26;20009;-69
2024/04/15 04:03:16;;;;;;;17.48;9.13;;;;;;;;;;5349292;26;20015;-69
2024/04/15 04:05:42;;;;;;;20.25;9.77;;;;;;;;;;5350430;26;20004;-68
2024/04/15 04:08:08;;;;;;;18.52;9.15;;;;;;;;;;5349088;26;20016;-68
2024/04/15 04:10:34;;;;;;;17.63;9.15;;;;;;;;;;5348323;26;20457;-70
2024/04/15 04:13:00;;;;;;;20.88;8.68;;;;;;;;;;5349351;26;20538;-69
2024/04/15 04:15:26;;;;;;;16.10;8.70;;;;;;;;;;5347505;26;20026;-69
2024/04/15 04:17:52;;;;;;;15.95;8.10;;;;;;;;;;5347551;26;20001;-69
2024/04/15 04:20:18;;;;;;;17.17;8.05;;;;;;;;;;5347481;26;20005;-70
2024/04/15 04:22:44;;;;;;;16.33;8.95;;;;;;;;;;5347132;26;20538;-69
2024/04/15 04:25:10;;;;;;;17.88;8.65;;;;;;;;;;5347338;26;20000;-68
2024/04/15 04:27:36;;;;;;;13.18;7.50;;;;;;;;;;5347080;26;20009;-68
2024/04/15 04:30:02;;;;;;;16.60;7.50;;;;;;;;;;5346845;26;20015;-69
2024/04/15 04:32:28;;;;;;;15.02;8.07;;;;;;;;;;5346266;26;20001;-68
2024/04/15 04:34:54;;;;;;;16.58;7.60;;;;;;;;;;5346705;26;20020;-68
2024/04/15 04:37:20;;;;;;;17.83;8.48;;;;;;;;;;5346784;26;20340;-69
2024/04/15 04:39:46;;;;;;;11.73;6.75;;;;;;;;;;5346738;26;20001;-70
2024/04/15 04:42:12;;;;;;;14.60;7.28;;;;;;;;;;5340296;26;20017;-70
2024/04/15 04:44:38;;;;;;;13.52;7.25;;;;;;;;;;5340962;26;20005;-70
2024/04/15 04:47:04;;;;;;;12.90;7.53;;;;;;;;;;5346966;26;20008;-71
2024/04/15 04:49:30;;;;;;;13.48;7.45;;;;;;;;;;5346555;26;20015;-69
2024/04/15 04:51:56;;;;;;;14.95;7.25;;;;;;;;;;5346142;26;20013;-70
2024/04/15 04:54:22;;;;;;;13.25;6.78;;;;;;;;;;5346905;26;20001;-71
2024/04/15 04:56:49;;;;;;;11.85;6.72;;;;;;;;;;5346473;26;20041;-69
2024/04/15 04:59:15;;;;;;;12.52;7.05;;;;;;;;;;5346508;26;20016;-71
2024/04/15 05:01:41;;;;;;;13.30;7.07;;;;;;;;;;5346006;26;20001;-69
2024/04/15 05:04:10;;;;;;;11.50;6.93;;;;;;;;;;5346374;26;20089;-70
2024/04/15 05:06:37;;;;;;;13.75;7.10;;;;;;;;;;5344753;26;20016;-69
2024/04/15 05:09:03;;;;;;;13.25;6.68;;;;;;;;;;5346287;26;20453;-70
2024/04/15 05:11:29;;;;;;;11.20;6.18;;;;;;;;;;5345631;26;20001;-70
2024/04/15 05:13:55;;;;;;;10.25;6.15;;;;;;;;;;5345685;26;20132;-69
2024/04/15 05:16:21;;;;;;;8.73;5.38;;;;;;;;;;5345906;26;20008;-68
2024/04/15 05:18:47;;;;;;;10.45;6.18;;;;;;;;;;5346234;26;20077;-68
2024/04/15 05:21:16;;;;;;;16.58;6.55;;;;;;;;;;5346055;26;20012;-68
2024/04/15 05:23:42;;;;;;;10.43;5.55;;;;;;;;;;5345437;26;20461;-67
2024/04/15 05:26:08;;;;;;;11.77;6.65;;;;;;;;;;5345869;26;20005;-70
2024/04/15 05:28:34;;;;;;;10.88;5.88;;;;;;;;;;5345867;26;20016;-68
2024/04/15 05:31:00;;;;;;;10.23;6.07;;;;;;;;;;5345451;26;20464;-67
2024/04/15 05:33:26;;;;;;;11.55;6.18;;;;;;;;;;5345754;26;20019;-68
2024/04/15 05:35:52;;;;;;;17.45;7.07;;;;;;;;;;5343154;26;20009;-68
2024/04/15 05:38:18;;;;;;;10.48;5.75;;;;;;;;;;5345806;26;20470;-68
2024/04/15 05:40:44;;;;;;;12.93;6.00;;;;;;;;;;5345714;26;20001;-67
2024/04/15 05:43:11;;;;;;;12.25;5.35;;;;;;;;;;5345263;26;20005;-68
2024/04/15 05:45:37;;;;;;;11.15;4.90;;;;;;;;;;5343564;26;20348;-68
2024/04/15 05:48:04;;;;;;;10.13;5.30;;;;;;;;;;5346009;26;20360;-67
2024/04/15 05:50:30;;;;;;;11.95;6.28;;;;;;;;;;5345787;26;20005;-67
2024/04/15 05:52:56;;;;;;;11.05;5.28;;;;;;;;;;5340507;26;20001;-68
2024/04/15 05:55:22;;;;;;;10.77;5.18;;;;;;;;;;5345675;26;20009;-67
2024/04/15 05:57:48;;;;;;;8.45;4.97;;;;;;;;;;5345272;26;20082;-66
2024/04/15 06:00:15;;;;;;;17.50;5.88;;;;;;;;;;5345100;26;20011;-67
2024/04/15 06:02:41;;;;;;;14.20;6.05;;;;;;;;;;5345385;26;20009;-69
2024/04/15 06:05:07;;;;;;;23.33;6.32;;;;;;;;;;5343867;26;20068;-69
2024/04/15 06:07:33;;;;;;;27.90;6.68;;;;;;;;;;5345536;26;20012;-68
2024/04/15 06:09:59;;;;;;;18.92;6.88;;;;;;;;;;5346677;26;20075;-69
2024/04/15 06:12:28;;;;;;;12.63;5.80;;;;;;;;;;5358023;26;20515;-67
2024/04/15 06:14:54;;;;;;;16.33;5.63;;;;;;;;;;5318095;26;20822;-70
2024/04/15 06:17:20;;;;;;;9.52;4.85;;;;;;;;;;5348147;26;20008;-67
2024/04/15 06:19:46;;;;;;;13.07;5.55;;;;;;;;;;5351177;26;20079;-67
2024/04/15 06:22:12;;;;;;;18.95;5.20;;;;;;;;;;5346488;26;20008;-68
2024/04/15 06:24:38;;;;;;;15.10;5.18;;;;;;;;;;5346828;26;20004;-66
2024/04/15 06:27:04;;;;;;;12.63;4.63;;;;;;;;;;5352397;26;19993;-68
2024/04/15 06:29:30;;;;;;;13.75;5.65;;;;;;;;;;5365585;26;19996;-67
2024/04/15 06:31:56;;;;;;;9.65;5.05;;;;;;;;;;5380543;26;20069;-68
2024/04/15 06:34:24;;;;;;;8.63;4.57;;;;;;;;;;5380299;26;20459;-68
2024/04/15 06:36:52;;;;;;;8.80;3.72;;;;;;;;;;5380044;26;20482;-68
2024/04/15 06:39:18;;;;;;;18.80;4.95;;;;;;;;;;5379622;26;20028;-68
2024/04/15 06:41:43;;;;;;;16.02;4.85;;;;;;;;;;5376153;26;19992;-68
2024/04/15 06:44:10;;;;;;;8.63;4.47;;;;;;;;;;5377401;26;20008;-68
2024/04/15 06:46:36;;;;;;;8.75;3.90;;;;;;;;;;5377950;26;20000;-68
2024/04/15 06:49:03;;;;;;;8.68;3.97;;;;;;;;;;5380111;26;20011;-69
2024/04/15 06:51:29;;;;;;;8.10;3.83;;;;;;;;;;5377830;26;19996;-68
2024/04/15 06:53:55;;;;;;;7.40;3.35;;;;;;;;;;5379815;26;20066;-67
2024/04/15 06:56:21;;;;;;;8.18;3.50;;;;;;;;;;5379636;26;20000;-68
2024/04/15 06:58:47;;;;;;;9.82;3.47;;;;;;;;;;5379585;26;20008;-69
2024/04/15 07:01:13;;;;;;;9.48;3.40;;;;;;;;;;5379318;26;20000;-69
2024/04/15 07:03:39;;;;;;;7.88;3.35;;;;;;;;;;5379419;26;20380;-68
2024/04/15 07:06:05;;;;;;;10.07;3.60;;;;;;;;;;5379886;26;20504;-69
2024/04/15 07:08:31;;;;;;;5.25;3.22;;;;;;;;;;5379881;26;20479;-68
2024/04/15 07:10:57;;;;;;;6.07;3.00;;;;;;;;;;5379458;26;20024;-68
2024/04/15 07:13:24;;;;;;;6.80;3.10;;;;;;;;;;5379309;26;20046;-68
2024/04/15 07:15:50;;;;;;;6.22;2.63;;;;;;;;;;5379245;26;20395;-68
2024/04/15 07:18:15;;;;;;;6.30;2.97;;;;;;;;;;5379359;26;20525;-69
2024/04/15 07:20:44;;;;;;;8.50;3.30;;;;;;;;;;5379413;26;20012;-68
2024/04/15 07:23:10;;;;;;;10.20;2.58;;;;;;;;;;5379390;26;20007;-68
2024/04/15 07:25:36;;;;;;;6.45;3.03;;;;;;;;;;5379482;26;20444;-68
2024/04/15 07:28:02;;;;;;;5.40;2.85;;;;;;;;;;5379187;26;20008;-68
2024/04/15 07:30:28;;;;;;;7.45;2.50;;;;;;;;;;5379271;26;20456;-69
2024/04/15 07:32:54;;;;;;;3.90;2.38;;;;;;;;;;5378996;26;20419;-68
2024/04/15 07:35:20;;;;;;;5.85;2.80;;;;;;;;;;5379304;26;20394;-67
2024/04/15 07:37:46;;;;;;;5.90;2.78;;;;;;;;;;5379054;26;20015;-68
2024/04/15 07:40:12;;;;;;;4.57;2.60;;;;;;;;;;5378983;26;20004;-68
2024/04/15 07:42:42;;;;;;;5.30;3.22;;;;;;;;;;5378777;26;20000;-68
2024/04/15 07:45:08;;;;;;;4.45;2.55;;;;;;;;;;5379089;26;20011;-68
2024/04/15 07:47:34;;;;;;;5.28;2.85;;;;;;;;;;5378844;26;20012;-68
2024/04/15 07:50:00;;;;;;;4.82;2.63;;;;;;;;;;5377084;26;20007;-69
2024/04/15 07:52:26;;;;;;;5.53;2.30;;;;;;;;;;5378386;26;20004;-68
2024/04/15 07:54:54;;;;;;;4.75;2.65;;;;;;;;;;5378717;26;20004;-68
2024/04/15 07:57:20;;;;;;;5.38;2.22;;;;;;;;;;5378878;26;20076;-68
2024/04/15 07:59:47;;;;;;;5.20;2.28;;;;;;;;;;5378969;26;20008;-68
2024/04/15 08:02:13;;;;;;;5.40;2.58;;;;;;;;;;5378362;26;20037;-68
2024/04/15 08:04:39;;;;;;;5.88;2.28;;;;;;;;;;5378762;26;20004;-68
2024/04/15 08:07:05;;;;;;;4.85;2.85;;;;;;;;;;5378722;26;20013;-68
2024/04/15 08:09:31;;;;;;;4.55;2.03;;;;;;;;;;5378564;26;20012;-69
2024/04/15 08:11:57;;;;;;;4.13;2.03;;;;;;;;;;5377955;26;20004;-68
2024/04/15 08:14:23;;;;;;;3.00;2.08;;;;;;;;;;5378567;26;20081;-67
2024/04/15 08:16:49;;;;;;;3.58;2.05;;;;;;;;;;5380525;26;20020;-68
2024/04/15 08:19:15;;;;;;;4.38;1.80;;;;;;;;;;5382090;26;20379;-68
2024/04/15 08:21:41;;;;;;;3.33;1.90;;;;;;;;;;5381847;26;20000;-68
2024/04/15 08:24:07;;;;;;;2.70;1.83;;;;;;;;;;5382104;26;20011;-69
2024/04/15 08:26:33;;;;;;;3.17;1.85;;;;;;;;;;5381857;26;20008;-69
2024/04/15 08:29:02;;;;;;;3.38;1.83;;;;;;;;;;5382101;26;20016;-68
2024/04/15 08:31:29;;;;;;;4.60;1.98;;;;;;;;;;5381746;26;20000;-67
2024/04/15 08:33:55;;;;;;;5.30;2.15;;;;;;;;;;5382098;26;20004;-68
2024/04/15 08:36:21;;;;;;;3.38;1.83;;;;;;;;;;5381625;26;20000;-66
2024/04/15 08:38:47;;;;;;;4.38;1.73;;;;;;;;;;5381731;26;20016;-68
2024/04/15 08:41:27;;;;;;;3.33;1.77;;;;;;;;;;5381473;26;20004;-67
2024/04/15 08:44:03;;;;;;;3.67;2.17;;;;;;;;;;5381784;26;20004;-67
2024/04/15 08:46:34;;;;;;;4.22;1.90;;;;;;;;;;5381698;26;20136;-67
2024/04/15 08:49:00;;;;;;;8.15;1.70;;;;;;;;;;5379875;26;20036;-67
2024/04/15 08:51:26;;;;;;;2.65;1.75;;;;;;;;;;5379575;26;20001;-66
2024/04/15 08:53:52;;;;;;;3.53;1.80;;;;;;;;;;5381341;26;20371;-68
2024/04/15 08:56:18;;;;;;;4.18;2.05;;;;;;;;;;5381469;26;20004;-67
2024/04/15 08:58:47;;;;;;;4.47;1.45;;;;;;;;;;5381469;26;20051;-68
2024/04/15 09:01:14;;;;;;;4.47;2.00;;;;;;;;;;5379626;26;20004;-67
2024/04/15 09:03:40;;;;;;;3.33;1.40;;;;;;;;;;5381272;26;20452;-67
2024/04/15 09:06:08;;;;;;;3.97;1.63;;;;;;;;;;5381391;26;20004;-68
2024/04/15 09:08:34;;;;;;;2.22;1.35;;;;;;;;;;5381223;26;20344;-68
2024/04/15 09:11:00;;;;;;;1.83;1.35;;;;;;;;;;5381183;26;20000;-67
2024/04/15 09:13:26;;;;;;;4.05;1.75;;;;;;;;;;5381202;26;20076;-68
2024/04/15 09:15:52;;;;;;;3.38;1.45;;;;;;;;;;5381201;26;20012;-67
2024/04/15 09:18:19;;;;;;;2.30;1.35;;;;;;;;;;5381064;26;20011;-67
2024/04/15 09:20:48;;;;;;;4.65;2.08;;;;;;;;;;5381245;26;20082;-68
2024/04/15 09:23:14;;;;;;;2.00;1.33;;;;;;;;;;5380914;26;19996;-67
2024/04/15 09:25:40;;;;;;;2.28;1.77;;;;;;;;;;5381539;26;20359;-67
2024/04/15 09:28:06;;;;;;;1.60;1.17;;;;;;;;;;5379831;26;20457;-68
2024/04/15 09:30:32;;;;;;;2.28;1.60;;;;;;;;;;5381156;26;20011;-67
2024/04/15 09:32:59;;;;;;;2.75;1.45;;;;;;;;;;5381189;26;19996;-67
2024/04/15 09:35:27;;;;;;;2.40;1.40;;;;;;;;;;5381245;26;20055;-68
2024/04/15 09:37:53;;;;;;;2.20;1.63;;;;;;;;;;5381341;26;20410;-67
2024/04/15 09:40:23;;;;;;;1.75;1.20;;;;;;;;;;5381730;26;20040;-68
2024/04/15 09:42:51;;;;;;;2.65;1.42;;;;;;;;;;5381231;26;20004;-67
2024/04/15 09:45:17;;;;;;;1.63;1.00;;;;;;;;;;5382310;26;20000;-68
2024/04/15 09:47:46;;;;;;;2.05;1.33;;;;;;;;;;5385683;26;20000;-68
2024/04/15 09:50:12;;;;;;;3.08;1.02;;;;;;;;;;5386549;26;20476;-68
2024/04/15 09:52:42;;;;;;;2.17;1.17;;;;;;;;;;5386415;26;19996;-68
2024/04/15 09:55:09;;;;;;;1.65;1.10;;;;;;;;;;5386883;26;19996;-68
2024/04/15 09:57:39;;;;;;;1.73;1.13;;;;;;;;;;5384695;26;20076;-68
2024/04/15 10:00:07;;;;;;;2.03;1.20;;;;;;;;;;5385355;26;20006;-67
2024/04/15 10:02:37;;;;;;;1.98;1.33;;;;;;;;;;5380692;26;20012;-67
2024/04/15 10:05:08;;;;;;;2.97;1.20;;;;;;;;;;5380818;26;20004;-68
2024/04/15 10:07:34;;;;;;;2.42;1.42;;;;;;;;;;5380423;26;20275;-67
2024/04/15 10:10:01;;;;;;;1.60;1.17;;;;;;;;;;5380570;26;20015;-67
2024/04/15 10:12:27;;;;;;;2.47;1.25;;;;;;;;;;5380307;26;20004;-68
2024/04/15 10:14:54;;;;;;;1.80;1.13;;;;;;;;;;5380391;26;20012;-68
2024/04/15 10:17:20;;;;;;;1.42;0.80;;;;;;;;;;5380142;26;20437;-68
2024/04/15 10:19:49;;;;;;;1.42;0.80;;;;;;;;;;5380100;26;20472;-68
2024/04/15 10:22:16;;;;;;;1.17;0.98;;;;;;;;;;5379608;26;20000;-68
2024/04/15 10:24:43;;;;;;;1.58;1.25;;;;;;;;;;5380060;26;20480;-68
2024/04/15 10:27:09;;;;;;;1.75;1.10;;;;;;;;;;5380352;26;20366;-68
2024/04/15 10:29:38;;;;;;;2.50;1.40;;;;;;;;;;5380367;26;20011;-67
2024/04/15 10:32:06;;;;;;;1.40;1.17;;;;;;;;;;5377968;26;19996;-67
2024/04/15 10:34:33;;;;;;;2.08;1.23;;;;;;;;;;5380056;26;20004;-67
2024/04/15 10:36:59;;;;;;;1.88;0.75;;;;;;;;;;5379884;26;20004;-67
2024/04/15 10:39:25;;;;;;;2.25;1.27;;;;;;;;;;5379344;26;20078;-68
2024/04/15 10:41:51;;;;;;;2.35;1.30;;;;;;;;;;5379329;26;20072;-67
2024/04/15 10:44:17;;;;;;;1.10;0.73;;;;;;;;;;5379864;26;20007;-67
2024/04/15 10:46:45;;;;;;;3.80;1.10;;;;;;;;;;5379887;26;20000;-67
2024/04/15 10:49:11;;;;;;;1.48;1.00;;;;;;;;;;5379929;26;20000;-68
2024/04/15 10:51:38;;;;;;;1.40;0.90;;;;;;;;;;5379484;26;20000;-67
2024/04/15 10:54:04;;;;;;;2.45;1.10;;;;;;;;;;5379759;26;20015;-68
2024/04/15 10:56:31;;;;;;;1.40;0.93;;;;;;;;;;5379838;26;20011;-67
2024/04/15 10:58:57;;;;;;;1.40;1.10;;;;;;;;;;5380340;26;20582;-68
2024/04/15 11:01:23;;;;;;;1.10;1.00;;;;;;;;;;5379729;26;20008;-68
2024/04/15 11:03:49;;;;;;;2.03;1.02;;;;;;;;;;5380124;26;20066;-67
2024/04/15 11:06:19;;;;;;;1.52;1.00;;;;;;;;;;5380146;26;20001;-67
2024/04/15 11:08:45;;;;;;;2.05;1.02;;;;;;;;;;5379637;26;20005;-68
2024/04/15 11:11:12;;;;;;;1.27;1.00;;;;;;;;;;5379551;26;20403;-67
2024/04/15 11:13:41;;;;;;;1.88;1.15;;;;;;;;;;5379490;26;20077;-67
2024/04/15 11:16:11;;;;;;;1.30;1.02;;;;;;;;;;5379376;26;20008;-67
2024/04/15 11:18:37;;;;;;;1.50;0.85;;;;;;;;;;5379807;26;20001;-67
2024/04/15 11:21:03;;;;;;;1.55;0.77;;;;;;;;;;5377410;26;20015;-67
2024/04/15 11:23:29;;;;;;;1.63;1.13;;;;;;;;;;5379062;26;20007;-68
2024/04/15 11:25:56;;;;;;;1.55;0.77;;;;;;;;;;5378246;26;20004;-68
2024/04/15 11:28:23;;;;;;;1.67;0.80;;;;;;;;;;5379321;26;20333;-67
2024/04/15 11:30:49;;;;;;;1.35;0.73;;;;;;;;;;5379055;26;20475;-67
2024/04/15 11:33:15;;;;;;;2.95;0.93;;;;;;;;;;5379444;26;20007;-67
2024/04/15 11:35:48;;;;;;;0.70;0.60;;;;;;;;;;5379288;26;20004;-68
2024/04/15 11:38:14;;;;;;;0.95;0.85;;;;;;;;;;5379154;26;20000;-68
2024/04/15 11:40:41;;;;;;;2.03;0.60;;;;;;;;;;5378921;26;20000;-66
2024/04/15 11:43:07;;;;;;;5.32;1.00;;;;;;;;;;5378873;26;20456;-67
2024/04/15 11:45:33;;;;;;;1.10;0.70;;;;;;;;;;5379028;26;20364;-67
2024/04/15 11:47:59;;;;;;;1.00;0.73;;;;;;;;;;5379102;26;20001;-67
2024/04/15 11:50:25;;;;;;;1.08;0.90;;;;;;;;;;5374174;26;19996;-67
2024/04/15 11:52:51;;;;;;;2.25;1.20;;;;;;;;;;5346867;26;20000;-67
2024/04/15 11:55:18;;;;;;;0.90;0.80;;;;;;;;;;5347109;26;20313;-67
2024/04/15 11:57:44;;;;;;;1.20;0.65;;;;;;;;;;5347447;26;20079;-68
2024/04/15 12:00:12;;;;;;;1.75;0.95;;;;;;;;;;5347032;26;20001;-67
2024/04/15 12:02:38;;;;;;;1.27;0.63;;;;;;;;;;5346780;26;20415;-66
2024/04/15 12:05:06;;;;;;;1.13;0.57;;;;;;;;;;5345074;26;20052;-67
2024/04/15 12:07:32;;;;;;;0.93;0.60;;;;;;;;;;5347165;26;19997;-68
2024/04/15 12:09:58;;;;;;;1.02;0.70;;;;;;;;;;5347307;26;20012;-68
2024/04/15 12:12:24;;;;;;;1.02;0.60;;;;;;;;;;5346717;26;20078;-67
2024/04/15 12:14:50;;;;;;;1.02;0.50;;;;;;;;;;5347050;26;19997;-67
2024/04/15 12:17:16;;;;;;;1.00;0.47;;;;;;;;;;5347384;26;20385;-68
2024/04/15 12:19:43;;;;;;;1.42;0.52;;;;;;;;;;5347040;26;19993;-67
2024/04/15 12:22:09;;;;;;;1.00;0.70;;;;;;;;;;5346864;26;20005;-67
2024/04/15 12:24:35;;;;;;;0.40;0.40;;;;;;;;;;5347075;26;20012;-67
2024/04/15 12:27:01;;;;;;;1.08;0.60;;;;;;;;;;5347135;26;19993;-67
2024/04/15 12:29:27;;;;;;;0.50;0.50;;;;;;;;;;5347104;26;19997;-67
2024/04/15 12:31:53;;;;;;;1.23;0.65;;;;;;;;;;5346956;26;20011;-67
2024/04/15 12:34:19;;;;;;;0.70;0.63;;;;;;;;;;5347055;26;20000;-67
2024/04/15 12:36:45;;;;;;;0.68;0.68;;;;;;;;;;5345937;26;19997;-67
2024/04/15 12:39:11;;;;;;;0.68;0.57;;;;;;;;;;5346792;26;20008;-66
2024/04/15 12:41:37;;;;;;;0.60;0.50;;;;;;;;;;5346631;26;20001;-67
2024/04/15 12:44:03;;;;;;;0.50;0.50;;;;;;;;;;5346855;26;20001;-68
2024/04/15 12:46:29;;;;;;;1.15;0.73;;;;;;;;;;5346559;26;20052;-67
2024/04/15 12:48:56;;;;;;;0.75;0.50;;;;;;;;;;5346970;26;20012;-67
2024/04/15 12:51:22;;;;;;;1.05;0.63;;;;;;;;;;5347518;26;20011;-69
2024/04/15 12:53:48;;;;;;;0.57;0.57;;;;;;;;;;5346348;26;20009;-68
2024/04/15 12:56:14;;;;;;;0.63;0.60;;;;;;;;;;5346733;26;19997;-68
2024/04/15 12:58:40;;;;;;;0.63;0.60;;;;;;;;;;5346408;26;19997;-68
2024/04/15 13:01:09;;;;;;;1.20;0.60;;;;;;;;;;5346363;26;20358;-68
2024/04/15 13:03:35;;;;;;;0.70;0.63;;;;;;;;;;5345956;26;20051;-68
2024/04/15 13:06:02;;;;;;;0.73;0.50;;;;;;;;;;5346607;26;20005;-68
2024/04/15 13:08:31;;;;;;;0.47;0.43;;;;;;;;;;5346419;26;20001;-68
2024/04/15 13:10:57;;;;;;;1.10;0.38;;;;;;;;;;5346443;26;20020;-68
2024/04/15 13:13:23;;;;;;;0.93;0.63;;;;;;;;;;5346963;26;20005;-68
2024/04/15 13:15:49;;;;;;;1.23;0.68;;;;;;;;;;5346385;26;20479;-68
2024/04/15 13:18:18;;;;;;;1.08;0.50;;;;;;;;;;5335832;26;20026;-69
2024/04/15 13:20:44;;;;;;;0.95;0.68;;;;;;;;;;5330784;26;20048;-70
2024/04/15 13:23:11;;;;;;;1.95;0.50;;;;;;;;;;5320726;26;20333;-68
2024/04/15 13:25:37;;;;;;;3.45;1.08;;;;;;;;;;5327084;26;20017;-68
2024/04/15 13:28:03;;;;;;;6.93;1.45;;;;;;;;;;5311607;26;20001;-70
2024/04/15 13:30:29;;;;;;;8.40;1.52;;;;;;;;;;5341004;26;20067;-71
2024/04/15 13:32:56;;;;;;;2.17;1.20;;;;;;;;;;5335011;26;20440;-72
2024/04/15 13:35:22;;;;;;;5.85;1.75;;;;;;;;;;5311612;26;20016;-73
2024/04/15 13:37:48;;;;;;;2.35;1.40;;;;;;;;;;5311556;26;20005;-70
2024/04/15 13:40:13;;;;;;;5.00;2.03;;;;;;;;;;5311385;26;20017;-72
2024/04/15 13:42:39;;;;;;;3.90;1.60;;;;;;;;;;5311957;26;20469;-72
2024/04/15 13:45:06;;;;;;;8.18;1.65;;;;;;;;;;5320280;26;20007;-69
2024/04/15 13:47:32;;;;;;;3.80;1.30;;;;;;;;;;5327910;26;20001;-69
2024/04/15 13:49:58;;;;;;;2.17;1.05;;;;;;;;;;5326495;26;20146;-69
2024/04/15 13:52:24;;;;;;;3.47;1.15;;;;;;;;;;5328927;26;20159;-66
2024/04/15 13:54:50;;;;;;;11.13;1.73;;;;;;;;;;5329843;26;20357;-65
2024/04/15 13:57:17;;;;;;;11.90;2.10;;;;;;;;;;5328621;26;20002;-64
2024/04/15 13:59:43;;;;;;;8.18;2.03;;;;;;;;;;5327505;26;20071;-63
2024/04/15 14:02:10;;;;;;;12.93;1.80;;;;;;;;;;5330288;26;20001;-64
2024/04/15 14:04:36;;;;;;;6.50;1.50;;;;;;;;;;5312521;26;20013;-64
2024/04/15 14:07:02;;;;;;;9.80;1.60;;;;;;;;;;5310870;26;19998;-64
2024/04/15 14:09:28;;;;;;;4.30;1.35;;;;;;;;;;5310564;26;20468;-63
2024/04/15 14:11:54;;;;;;;4.63;1.10;;;;;;;;;;5310689;26;20001;-64
2024/04/15 14:14:20;;;;;;;3.50;1.10;;;;;;;;;;5309655;26;20389;-64
2024/04/15 14:16:47;;;;;;;3.97;1.23;;;;;;;;;;5310851;26;20014;-67
2024/04/15 14:19:13;;;;;;;6.93;1.10;;;;;;;;;;5311014;26;20001;-67
2024/04/15 14:21:39;;;;;;;6.10;1.20;;;;;;;;;;5311010;26;20100;-63
2024/04/15 14:24:06;;;;;;;7.25;0.80;;;;;;;;;;5310631;26;20009;-65
2024/04/15 14:26:32;;;;;;;6.32;1.33;;;;;;;;;;5310847;26;20359;-66
2024/04/15 14:28:58;;;;;;;5.85;1.15;;;;;;;;;;5321712;26;20124;-65